Time;durP1;ratioP1;P1;durP2;ratioP2;P2;SDS_P1;SDS_P2;PMS_P1;PMS_P2;Temp;Humidity;BMP_temperature;BMP_pressure;BME280_temperature;BME280_humidity;BME280_pressure;Samples;Min_cycle;Max_cycle;Signal;HPM_P1;HPM_P2
2021/10/13 00:01:21;;;;;;;;;8.50;5.00;;;;;14.64;47.35;98099.72;4818175;28;104247;-87
2021/10/13 00:03:48;;;;;;;;;5.00;4.00;;;;;14.65;47.64;98095.94;4792968;28;102292;-87
2021/10/13 00:06:15;;;;;;;;;6.00;6.00;;;;;14.63;47.95;98091.81;4795468;28;102501;-86
2021/10/13 00:08:42;;;;;;;;;4.75;4.00;;;;;14.64;47.61;98094.28;4799542;28;103826;-86
2021/10/13 00:11:09;;;;;;;;;6.50;5.75;;;;;14.64;47.39;98098.91;4787902;28;104294;-87
2021/10/13 00:13:36;;;;;;;;;4.00;4.00;;;;;14.64;47.97;98101.63;4818203;28;105404;-86
2021/10/13 00:16:04;;;;;;;;;3.00;3.00;;;;;14.63;47.59;98100.00;4819880;28;105115;-86
2021/10/13 00:18:32;;;;;;;;;5.00;5.00;;;;;14.63;47.69;98097.25;4821572;28;102606;-87
2021/10/13 00:20:59;;;;;;;;;4.25;4.25;;;;;14.64;47.85;98098.91;4819926;28;104711;-86
2021/10/13 00:23:27;;;;;;;;;5.00;5.00;;;;;14.63;47.61;98097.25;4816088;28;102509;-86
2021/10/13 00:25:54;;;;;;;;;5.00;4.00;;;;;14.64;47.65;98098.91;4822089;28;102280;-82
2021/10/13 00:28:21;;;;;;;;;4.00;4.00;;;;;14.64;47.21;98104.34;4818324;28;104996;-86
2021/10/13 00:30:48;;;;;;;;;7.00;5.00;;;;;14.63;47.75;98108.94;4812734;28;103865;-86
2021/10/13 00:33:15;;;;;;;;;5.75;4.25;;;;;14.62;47.81;98107.31;4809416;28;102353;-87
2021/10/13 00:35:42;;;;;;;;;4.25;4.25;;;;;14.62;47.28;98095.59;4812835;28;102569;-86
2021/10/13 00:38:09;;;;;;;;;4.00;4.00;;;;;14.63;47.53;98100.00;4782877;28;102641;-86
2021/10/13 00:40:37;;;;;;;;;7.25;4.50;;;;;14.63;47.14;98100.00;4792985;28;104012;-86
2021/10/13 00:43:04;;;;;;;;;6.00;4.00;;;;;14.62;47.67;98101.88;4805905;28;110817;-86
2021/10/13 00:45:31;;;;;;;;;5.00;5.00;;;;;14.62;47.42;98096.44;4810571;28;102543;-86
2021/10/13 00:48:01;;;;;;;;;4.75;4.00;;;;;14.62;47.20;98101.88;4820813;28;103726;-86
2021/10/13 00:50:28;;;;;;;;;5.75;5.00;;;;;14.62;47.11;98104.59;4758891;28;104138;-86
2021/10/13 00:52:55;;;;;;;;;5.25;4.75;;;;;14.61;47.34;98102.09;4785638;28;105205;-86
2021/10/13 00:55:23;;;;;;;;;5.00;5.00;;;;;14.63;47.44;98097.25;4817406;28;102602;-86
2021/10/13 00:57:51;;;;;;;;;4.00;4.00;;;;;14.62;47.21;98098.31;4808383;28;102860;-87
2021/10/13 01:00:20;;;;;;;;;6.50;5.00;;;;;14.61;47.68;98100.22;4810966;28;104382;-87
2021/10/13 01:02:49;;;;;;;;;4.25;4.25;;;;;14.62;47.57;98098.31;4750499;28;102500;-86
2021/10/13 01:05:49;;;;;;;;;5.00;4.75;;;;;14.62;47.75;98101.03;4752581;29;102651;-86
2021/10/13 01:08:32;;;;;;;;;7.50;4.00;;;;;14.62;47.59;98106.47;4772196;28;102543;-86
2021/10/13 01:11:02;;;;;;;;;5.50;3.75;;;;;14.61;47.32;98110.25;4774573;28;109247;-87
2021/10/13 01:13:35;;;;;;;;;3.75;1.75;;;;;14.61;47.45;98099.38;4786950;28;102499;-86
2021/10/13 01:16:25;;;;;;;;;4.00;4.00;;;;;14.60;47.75;98105.88;4810604;28;102746;-86
2021/10/13 01:19:13;;;;;;;;;4.75;4.75;;;;;14.61;47.44;98104.81;4792567;28;102692;-87
2021/10/13 01:21:51;;;;;;;;;3.25;3.25;;;;;14.61;47.42;98113.00;4804796;28;109084;-86
2021/10/13 01:25:06;;;;;;;;;3.50;3.50;;;;;14.62;47.59;98117.38;4806352;28;102771;-87
2021/10/13 01:27:48;;;;;;;;;3.75;3.00;;;;;14.61;47.57;98118.44;4783088;28;102673;-86
2021/10/13 01:30:17;;;;;;;;;3.00;3.00;;;;;14.59;47.40;98123.31;4810687;28;104036;-86
2021/10/13 01:32:46;;;;;;;;;4.00;4.00;;;;;14.58;47.34;98125.19;4794365;29;104459;-86
2021/10/13 01:35:13;;;;;;;;;4.00;3.50;;;;;14.59;47.08;98132.25;4804022;28;102338;-86
2021/10/13 01:37:45;;;;;;;;;7.00;4.25;;;;;14.59;47.76;98134.97;4789205;28;102628;-86
2021/10/13 01:40:14;;;;;;;;;4.00;4.00;;;;;14.60;47.44;98141.25;4787412;28;102512;-86
2021/10/13 01:42:45;;;;;;;;;3.00;3.00;;;;;14.60;47.69;98146.69;4808702;28;103781;-85
2021/10/13 01:45:12;;;;;;;;;3.50;3.00;;;;;14.59;47.47;98145.06;4808569;28;102416;-86
2021/10/13 01:47:39;;;;;;;;;4.50;3.00;;;;;14.60;47.31;98141.25;4785185;28;102849;-86
2021/10/13 01:50:06;;;;;;;;;3.75;3.00;;;;;14.59;47.34;98140.44;4808535;28;102345;-87
2021/10/13 01:52:33;;;;;;;;;3.50;3.00;;;;;14.58;47.25;98137.97;4802045;28;110239;-87
2021/10/13 01:55:01;;;;;;;;;2.00;2.00;;;;;14.59;47.56;98145.88;4813786;28;102224;-86
2021/10/13 01:57:28;;;;;;;;;5.00;4.00;;;;;14.59;47.36;98151.31;4832271;28;102266;-86
2021/10/13 01:59:57;;;;;;;;;3.25;3.25;;;;;14.58;47.56;98154.28;4806890;28;105498;-86
2021/10/13 02:02:30;;;;;;;;;4.25;4.00;;;;;14.59;47.42;98153.22;4823678;28;104217;-86
2021/10/13 02:04:58;;;;;;;;;4.75;4.00;;;;;14.60;47.07;98152.13;4825043;28;102453;-87
2021/10/13 02:07:26;;;;;;;;;4.00;2.25;;;;;14.59;47.37;98166.84;4821334;28;105225;-87
2021/10/13 02:09:55;;;;;;;;;5.75;3.00;;;;;14.58;46.95;98166.00;4795619;28;103258;-86
2021/10/13 02:12:22;;;;;;;;;2.00;2.00;;;;;14.58;47.45;98170.63;4813614;28;103997;-86
2021/10/13 02:14:50;;;;;;;;;4.00;4.00;;;;;14.56;47.30;98170.84;4827187;28;102511;-86
2021/10/13 02:17:16;;;;;;;;;3.00;3.00;;;;;14.57;47.17;98175.22;4800904;29;102721;-86
2021/10/13 02:19:45;;;;;;;;;3.00;3.00;;;;;14.57;47.37;98174.38;4826386;28;103091;-86
2021/10/13 02:22:12;;;;;;;;;3.25;3.00;;;;;14.58;47.25;98176.06;4811522;28;104117;-86
2021/10/13 02:24:41;;;;;;;;;4.50;3.25;;;;;14.57;46.95;98185.28;4813903;28;103232;-85
2021/10/13 02:27:10;;;;;;;;;4.00;3.00;;;;;14.57;47.41;98177.94;4826202;28;102341;-86
2021/10/13 02:29:38;;;;;;;;;5.50;3.75;;;;;14.56;47.33;98181.72;4828529;28;103555;-84
2021/10/13 02:32:06;;;;;;;;;5.50;3.25;;;;;14.57;47.16;98185.28;4819159;28;109062;-86
2021/10/13 02:34:37;;;;;;;;;4.00;3.00;;;;;14.56;47.19;98189.06;4793891;28;102596;-86
2021/10/13 02:37:04;;;;;;;;;4.50;2.50;;;;;14.56;47.68;98191.78;4807980;28;109657;-86
2021/10/13 02:39:31;;;;;;;;;2.50;2.50;;;;;14.56;47.65;98183.59;4820965;28;102295;-86
2021/10/13 02:41:58;;;;;;;;;3.00;3.00;;;;;14.56;47.62;98192.59;4822419;28;104111;-86
2021/10/13 02:44:25;;;;;;;;;2.75;2.75;;;;;14.56;47.64;98194.50;4831417;28;102030;-86
2021/10/13 02:47:10;;;;;;;;;2.75;2.50;;;;;14.56;47.02;98199.94;4828735;28;105074;-86
2021/10/13 02:49:54;;;;;;;;;3.00;3.00;;;;;14.57;47.22;98198.88;4818707;28;105273;-86
2021/10/13 02:52:41;;;;;;;;;3.25;2.75;;;;;14.56;47.18;98195.31;4833547;28;104267;-86
2021/10/13 02:55:22;;;;;;;;;3.25;2.00;;;;;14.55;47.30;98196.38;4827782;28;102676;-87
2021/10/13 02:58:19;;;;;;;;;4.00;3.00;;;;;14.55;47.25;98198.28;4806412;28;102801;-86
2021/10/13 03:00:47;;;;;;;;;2.00;2.00;;;;;14.55;47.39;98203.72;4826375;28;102834;-86
2021/10/13 03:03:33;;;;;;;;;3.00;2.50;;;;;14.55;47.31;98206.44;4823871;28;104335;-86
2021/10/13 03:06:00;;;;;;;;;3.00;2.25;;;;;14.54;47.04;98210.25;4802836;28;105463;-86
2021/10/13 03:08:27;;;;;;;;;3.00;3.00;;;;;14.56;47.45;98213.53;4825629;28;103288;-86
2021/10/13 03:10:57;;;;;;;;;2.00;2.00;;;;;14.55;47.39;98211.88;4814837;28;102408;-86
2021/10/13 03:13:25;;;;;;;;;2.25;2.00;;;;;14.55;46.92;98217.31;4797396;28;104033;-86
2021/10/13 03:15:52;;;;;;;;;3.00;3.00;;;;;14.55;47.17;98225.47;4805948;28;102834;-86
2021/10/13 03:18:19;;;;;;;;;2.00;2.00;;;;;14.55;47.16;98231.75;4807947;28;102426;-86
2021/10/13 03:20:48;;;;;;;;;2.25;2.25;;;;;14.55;47.19;98239.09;4806134;28;103415;-86
2021/10/13 03:23:16;;;;;;;;;3.00;3.00;;;;;14.54;46.91;98238.28;4811757;28;105075;-86
2021/10/13 03:25:44;;;;;;;;;2.25;2.25;;;;;14.53;46.87;98239.34;4814912;28;103936;-86
2021/10/13 03:28:12;;;;;;;;;3.50;2.25;;;;;14.53;47.38;98244.78;4816284;28;102678;-86
2021/10/13 03:30:41;;;;;;;;;3.75;2.00;;;;;14.55;46.88;98241.81;4821965;28;102198;-86
2021/10/13 03:33:08;;;;;;;;;2.75;2.00;;;;;14.54;47.41;98249.16;4810864;28;109141;-86
2021/10/13 03:35:35;;;;;;;;;3.75;3.00;;;;;14.53;47.21;98246.66;4818153;28;102649;-86
2021/10/13 03:38:03;;;;;;;;;1.75;1.00;;;;;14.54;46.90;98251.06;4820587;28;102755;-86
2021/10/13 03:40:32;;;;;;;;;2.25;2.00;;;;;14.53;47.58;98252.13;4824056;28;103125;-86
2021/10/13 03:42:59;;;;;;;;;2.00;2.00;;;;;14.53;47.36;98252.94;4802642;28;104345;-86
2021/10/13 03:45:26;;;;;;;;;3.00;2.00;;;;;14.52;47.03;98258.59;4819048;28;102419;-86
2021/10/13 03:47:53;;;;;;;;;3.00;2.75;;;;;14.54;47.51;98260.06;4811683;28;102407;-86
2021/10/13 03:50:21;;;;;;;;;4.00;2.00;;;;;14.54;47.36;98264.66;4810766;29;102614;-86
2021/10/13 03:52:48;;;;;;;;;2.00;1.50;;;;;14.54;47.31;98267.38;4822134;28;104427;-85
2021/10/13 03:55:16;;;;;;;;;2.00;2.00;;;;;14.52;47.11;98266.78;4827985;28;102227;-86
2021/10/13 03:57:43;;;;;;;;;1.25;1.25;;;;;14.49;46.86;98270.81;4821448;28;102531;-86
2021/10/13 04:00:18;;;;;;;;;3.00;2.00;;;;;14.50;47.35;98266.19;4831594;28;103423;-86
2021/10/13 04:02:45;;;;;;;;;2.00;2.00;;;;;14.51;47.32;98265.94;4821314;28;108854;-86
2021/10/13 04:05:13;;;;;;;;;3.00;2.25;;;;;14.52;46.89;98274.94;4827721;28;102628;-86
2021/10/13 04:07:40;;;;;;;;;4.50;2.75;;;;;14.51;46.81;98274.09;4827796;28;102188;-86
2021/10/13 04:10:09;;;;;;;;;3.00;3.00;;;;;14.53;47.16;98282.03;4830920;28;104514;-86
2021/10/13 04:12:37;;;;;;;;;3.25;3.00;;;;;14.51;46.90;98274.09;4791726;28;103808;-87
2021/10/13 04:15:04;;;;;;;;;2.25;1.75;;;;;14.54;47.37;98283.69;4811547;28;102544;-86
2021/10/13 04:17:33;;;;;;;;;2.50;2.50;;;;;14.51;47.33;98274.09;4811234;28;102283;-86
2021/10/13 04:20:05;;;;;;;;;2.00;2.00;;;;;14.52;47.70;98286.66;4802950;28;102814;-86
2021/10/13 04:22:32;;;;;;;;;2.50;1.50;;;;;14.51;47.26;98286.88;4809588;28;104042;-86
2021/10/13 04:24:59;;;;;;;;;2.50;2.00;;;;;14.51;47.04;98286.88;4804785;28;102307;-86
2021/10/13 04:27:26;;;;;;;;;2.25;2.25;;;;;14.51;47.09;98289.59;4816791;28;102400;-86
2021/10/13 04:29:53;;;;;;;;;4.00;1.25;;;;;14.50;47.12;98299.63;4827766;28;110955;-86
2021/10/13 04:32:20;;;;;;;;;1.75;1.75;;;;;14.49;47.26;98297.19;4825413;28;103786;-86
2021/10/13 04:34:48;;;;;;;;;2.00;2.00;;;;;14.51;47.16;98300.47;4818844;28;102779;-86
2021/10/13 04:37:16;;;;;;;;;2.00;2.00;;;;;14.50;47.13;98305.09;4825870;28;102530;-85
2021/10/13 04:39:43;;;;;;;;;3.00;2.00;;;;;14.50;47.61;98307.81;4833072;28;104536;-85
2021/10/13 04:42:10;;;;;;;;;2.75;2.00;;;;;14.50;47.35;98299.63;4810033;28;108996;-86
2021/10/13 04:44:38;;;;;;;;;1.50;1.50;;;;;14.50;46.93;98304.28;4809060;28;104418;-86
2021/10/13 04:47:05;;;;;;;;;2.00;2.00;;;;;14.50;46.84;98309.72;4811409;28;102418;-86
2021/10/13 04:49:32;;;;;;;;;3.00;2.00;;;;;14.51;47.58;98311.34;4825738;28;103937;-86
2021/10/13 04:51:59;;;;;;;;;3.00;1.75;;;;;14.51;47.34;98308.63;4828567;28;104051;-86
2021/10/13 04:54:27;;;;;;;;;2.00;2.00;;;;;14.51;47.19;98314.91;4827449;28;103897;-86
2021/10/13 04:56:54;;;;;;;;;1.75;1.75;;;;;14.49;46.96;98314.34;4824605;28;102255;-86
2021/10/13 04:59:21;;;;;;;;;1.50;1.50;;;;;14.51;47.29;98319.53;4821758;28;102537;-86
2021/10/13 05:01:48;;;;;;;;;1.00;1.00;;;;;14.50;46.92;98318.69;4821318;28;104095;-86
2021/10/13 05:04:15;;;;;;;;;2.00;2.00;;;;;14.49;46.92;98314.34;4810082;29;102633;-81
2021/10/13 05:06:45;;;;;;;;;3.25;2.00;;;;;14.50;47.12;98328.78;4831334;28;102352;-86
2021/10/13 05:09:12;;;;;;;;;2.00;2.00;;;;;14.49;47.53;98325.22;4831372;28;102460;-86
2021/10/13 05:11:39;;;;;;;;;1.00;1.00;;;;;14.50;46.91;98336.94;4824015;28;107469;-86
2021/10/13 05:14:06;;;;;;;;;1.00;1.00;;;;;14.49;47.23;98340.69;4824632;28;102493;-86
2021/10/13 05:16:34;;;;;;;;;2.50;1.00;;;;;14.50;47.21;98342.38;4824435;28;102289;-86
2021/10/13 05:19:01;;;;;;;;;2.00;2.00;;;;;14.49;46.84;98341.53;4821747;28;102493;-86
2021/10/13 05:21:28;;;;;;;;;3.00;2.00;;;;;14.49;46.96;98341.53;4829603;28;104071;-86
2021/10/13 05:23:55;;;;;;;;;1.00;1.00;;;;;14.49;46.94;98346.16;4808119;28;102790;-86
2021/10/13 05:26:22;;;;;;;;;1.00;1.00;;;;;14.49;47.40;98351.59;4818731;28;104412;-86
2021/10/13 05:28:49;;;;;;;;;1.00;1.00;;;;;14.49;47.30;98357.03;4825290;28;102541;-86
2021/10/13 05:31:16;;;;;;;;;1.75;1.00;;;;;14.48;46.74;98355.34;4831388;28;104083;-86
2021/10/13 05:33:44;;;;;;;;;1.25;1.25;;;;;14.49;46.68;98357.84;4826072;28;102673;-86
2021/10/13 05:36:15;;;;;;;;;2.00;2.00;;;;;14.48;46.93;98360.81;4827049;28;102290;-86
2021/10/13 05:38:53;;;;;;;;;1.50;1.50;;;;;14.47;46.88;98359.97;4834144;28;102587;-86
2021/10/13 05:41:20;;;;;;;;;1.25;1.00;;;;;14.47;47.26;98359.97;4815708;28;104369;-86
2021/10/13 05:43:47;;;;;;;;;1.50;1.00;;;;;14.48;46.83;98364.34;4826165;28;102618;-85
2021/10/13 05:46:14;;;;;;;;;1.75;1.75;;;;;14.47;46.72;98364.56;4831546;28;102723;-86
2021/10/13 05:48:41;;;;;;;;;2.00;1.00;;;;;14.47;47.24;98368.13;4830468;28;102643;-86
2021/10/13 05:51:08;;;;;;;;;1.50;1.25;;;;;14.48;47.35;98377.13;4834629;28;104297;-86
2021/10/13 05:53:35;;;;;;;;;1.00;1.00;;;;;14.47;46.83;98380.91;4833419;28;102154;-86
2021/10/13 05:56:03;;;;;;;;;1.50;1.50;;;;;14.48;46.84;98377.13;4816197;28;109875;-86
2021/10/13 05:58:30;;;;;;;;;2.00;2.00;;;;;14.46;47.21;98379.22;4826001;28;102490;-86
2021/10/13 06:00:57;;;;;;;;;0.75;0.75;;;;;14.47;46.84;98378.19;4839903;28;104287;-86
2021/10/13 06:03:25;;;;;;;;;1.75;1.75;;;;;14.49;47.37;98392.41;4824684;28;102602;-86
2021/10/13 06:05:52;;;;;;;;;1.00;1.00;;;;;14.47;46.87;98398.06;4828942;28;103035;-86
2021/10/13 06:08:21;;;;;;;;;2.00;1.00;;;;;14.48;47.43;98407.88;4826959;28;102608;-86
2021/10/13 06:10:48;;;;;;;;;1.00;1.00;;;;;14.48;46.69;98404.34;4837313;28;103957;-82
2021/10/13 06:13:15;;;;;;;;;1.00;1.00;;;;;14.47;47.12;98411.66;4824146;28;102231;-86
2021/10/13 06:15:43;;;;;;;;;1.00;1.00;;;;;14.45;46.80;98408.34;4819254;28;102494;-86
2021/10/13 06:18:11;;;;;;;;;1.50;1.00;;;;;14.47;46.87;98419.00;4827174;28;102261;-86
2021/10/13 06:20:38;;;;;;;;;1.00;1.00;;;;;14.46;46.82;98429.03;4829428;28;104255;-86
2021/10/13 06:23:05;;;;;;;;;2.00;1.00;;;;;14.48;46.70;98431.53;4829417;28;102507;-86
2021/10/13 06:25:32;;;;;;;;;1.50;1.50;;;;;14.47;47.26;98435.31;4832765;28;102927;-86
2021/10/13 06:28:00;;;;;;;;;1.00;1.00;;;;;14.48;46.63;98431.53;4821781;28;102177;-86
2021/10/13 06:30:32;;;;;;;;;1.25;1.25;;;;;14.47;46.65;98436.16;4812577;28;103010;-86
2021/10/13 06:32:59;;;;;;;;;1.75;1.75;;;;;14.46;47.08;98436.38;4836700;28;103444;-86
2021/10/13 06:35:26;;;;;;;;;1.00;1.00;;;;;14.48;46.65;98445.13;4819963;28;103890;-86
2021/10/13 06:37:53;;;;;;;;;2.00;2.00;;;;;14.48;47.22;98447.88;4824072;28;103029;-86
2021/10/13 06:40:20;;;;;;;;;1.00;1.00;;;;;14.48;47.28;98447.88;4832861;28;104257;-86
2021/10/13 06:42:47;;;;;;;;;0.00;0.00;;;;;14.46;47.16;98439.91;4813436;28;102378;-86
2021/10/13 06:45:14;;;;;;;;;1.00;1.00;;;;;14.44;47.53;98439.34;4808769;28;102689;-86
2021/10/13 06:47:41;;;;;;;;;0.75;0.75;;;;;14.49;47.14;98454.97;4820727;28;103844;-86
2021/10/13 06:50:09;;;;;;;;;1.00;1.00;;;;;14.48;47.04;98454.13;4830934;28;104142;-86
2021/10/13 06:52:37;;;;;;;;;1.00;1.00;;;;;14.48;46.79;98453.31;4824318;28;102727;-86
2021/10/13 06:55:05;;;;;;;;;2.00;1.75;;;;;14.49;46.88;98454.97;4831116;28;107976;-86
2021/10/13 06:57:33;;;;;;;;;1.00;1.00;;;;;14.48;46.92;98451.41;4823204;28;102392;-86
2021/10/13 07:00:00;;;;;;;;;2.00;1.00;;;;;14.49;46.88;98457.69;4808919;28;104079;-86
2021/10/13 07:02:27;;;;;;;;;0.00;0.00;;;;;14.48;46.83;98459.56;4823056;28;103356;-86
2021/10/13 07:04:54;;;;;;;;;1.50;1.00;;;;;14.49;47.01;98463.97;4830173;28;102501;-86
2021/10/13 07:07:21;;;;;;;;;1.00;1.00;;;;;14.50;47.15;98467.53;4829489;28;102206;-86
2021/10/13 07:09:48;;;;;;;;;0.75;0.75;;;;;14.48;46.74;98478.63;4818643;28;109785;-86
2021/10/13 07:12:15;;;;;;;;;1.75;1.00;;;;;14.50;47.21;98481.13;4827232;28;102685;-86
2021/10/13 07:14:42;;;;;;;;;2.50;1.00;;;;;14.49;46.80;98491.16;4824512;28;102557;-86
2021/10/13 07:17:09;;;;;;;;;1.00;1.00;;;;;14.49;47.34;98483.00;4826915;28;102791;-86
2021/10/13 07:19:36;;;;;;;;;0.00;0.00;;;;;14.49;47.08;98483.00;4826761;28;104075;-86
2021/10/13 07:22:03;;;;;;;;;2.00;2.00;;;;;14.50;47.22;98489.28;4830299;28;102605;-86
2021/10/13 07:24:30;;;;;;;;;1.00;1.00;;;;;14.50;46.90;98500.97;4823927;28;102284;-86
2021/10/13 07:26:57;;;;;;;;;1.75;1.00;;;;;14.49;46.76;98499.34;4829090;28;102747;-86
2021/10/13 07:29:27;;;;;;;;;2.00;1.75;;;;;14.50;46.74;98500.16;4817140;28;104008;-86
2021/10/13 07:31:54;;;;;;;;;1.75;1.75;;;;;14.51;46.84;98512.69;4832499;28;104801;-85
2021/10/13 07:34:22;;;;;;;;;0.75;0.75;;;;;14.50;46.66;98516.50;4839256;28;102765;-86
2021/10/13 07:36:49;;;;;;;;;1.00;1.00;;;;;14.49;46.66;98514.81;4828433;28;102646;-86
2021/10/13 07:39:16;;;;;;;;;1.25;1.00;;;;;14.50;46.52;98521.94;4825734;28;104069;-86
2021/10/13 07:41:43;;;;;;;;;1.00;1.00;;;;;14.49;46.80;98514.81;4824477;28;102421;-87
2021/10/13 07:44:10;;;;;;;;;1.50;1.00;;;;;14.49;47.24;98525.72;4818355;28;102870;-86
2021/10/13 07:46:37;;;;;;;;;1.25;1.00;;;;;14.49;46.47;98525.72;4824483;28;102431;-86
2021/10/13 07:49:04;;;;;;;;;1.00;1.00;;;;;14.50;46.65;98535.53;4817485;28;104377;-86
2021/10/13 07:51:31;;;;;;;;;1.00;1.00;;;;;14.49;46.76;98534.69;4806456;28;102560;-86
2021/10/13 07:53:58;;;;;;;;;1.25;1.25;;;;;14.49;46.40;98533.88;4802698;28;102505;-86
2021/10/13 07:56:25;;;;;;;;;1.00;1.00;;;;;14.49;46.92;98534.69;4826835;28;109639;-82
2021/10/13 07:58:52;;;;;;;;;3.00;1.25;;;;;14.47;47.07;98534.09;4808151;28;104695;-86
2021/10/13 08:01:19;;;;;;;;;2.00;1.00;;;;;14.49;46.75;98536.59;4805221;28;102505;-86
2021/10/13 08:03:47;;;;;;;;;0.25;0.25;;;;;14.49;46.96;98536.59;4808854;28;102142;-87
2021/10/13 08:06:14;;;;;;;;;1.00;1.00;;;;;14.48;46.58;98533.03;4809817;28;106023;-86
2021/10/13 08:08:41;;;;;;;;;1.25;1.25;;;;;14.49;47.13;98537.44;4816906;28;104284;-86
2021/10/13 08:11:08;;;;;;;;;1.00;1.00;;;;;14.49;46.86;98531.16;4828798;28;102231;-86
2021/10/13 08:13:35;;;;;;;;;2.00;1.00;;;;;14.50;46.84;98538.25;4822923;28;102606;-86
2021/10/13 08:16:02;;;;;;;;;1.00;1.00;;;;;14.48;46.48;98545.81;4828968;28;102238;-86
2021/10/13 08:18:30;;;;;;;;;1.00;1.00;;;;;14.49;47.23;98547.47;4828737;28;105499;-86
2021/10/13 08:20:57;;;;;;;;;3.00;1.75;;;;;14.48;46.95;98549.34;4828013;28;102197;-86
2021/10/13 08:23:24;;;;;;;;;1.25;1.00;;;;;14.48;46.77;98551.25;4822889;28;102563;-86
2021/10/13 08:25:55;;;;;;;;;0.00;0.00;;;;;14.49;46.46;98547.47;4819688;28;102332;-86
2021/10/13 08:28:22;;;;;;;;;2.00;1.00;;;;;14.47;46.87;98542.25;4830641;28;108702;-86
2021/10/13 08:30:49;;;;;;;;;1.75;1.75;;;;;14.47;46.96;98539.53;4818065;28;102445;-86
2021/10/13 08:33:16;;;;;;;;;2.00;1.00;;;;;14.49;46.80;98547.47;4833203;28;102322;-86
2021/10/13 08:35:43;;;;;;;;;1.50;1.00;;;;;14.49;46.45;98552.91;4825958;28;102298;-86
2021/10/13 08:38:10;;;;;;;;;1.00;1.00;;;;;14.49;46.97;98548.31;4816378;28;104034;-86
2021/10/13 08:40:38;;;;;;;;;1.25;1.00;;;;;14.49;46.72;98542.88;4835511;28;102228;-86
2021/10/13 08:43:05;;;;;;;;;1.25;1.25;;;;;14.49;47.01;98551.03;4807334;28;102395;-86
2021/10/13 08:45:33;;;;;;;;;2.00;2.00;;;;;14.49;46.93;98553.75;4824184;28;103575;-86
2021/10/13 08:48:00;;;;;;;;;2.00;1.00;;;;;14.50;46.49;98557.31;4827244;28;104155;-86
2021/10/13 08:50:29;;;;;;;;;1.00;1.00;;;;;14.51;46.61;98556.22;4808265;28;102503;-85
2021/10/13 08:53:10;;;;;;;;;2.00;1.50;;;;;14.49;46.89;98556.47;4820301;28;102091;-84
2021/10/13 08:55:39;;;;;;;;;1.00;1.00;;;;;14.52;46.71;98557.91;4819124;28;102637;-87
2021/10/13 08:58:16;;;;;;;;;2.00;1.25;;;;;14.53;46.58;98570.44;4807616;28;104155;-86
2021/10/13 09:00:45;;;;;;;;;0.50;0.00;;;;;14.52;47.02;98563.34;4818133;28;102304;-86
2021/10/13 09:03:29;;;;;;;;;1.00;1.00;;;;;14.53;47.08;98565.00;4816966;28;102555;-86
2021/10/13 09:05:57;;;;;;;;;2.00;1.00;;;;;14.52;47.16;98564.16;4817287;28;102677;-85
2021/10/13 09:08:25;;;;;;;;;2.00;1.50;;;;;14.53;46.73;98567.72;4827368;28;104081;-86
2021/10/13 09:10:55;;;;;;;;;1.50;1.50;;;;;14.53;46.65;98565.84;4824035;28;102592;-86
2021/10/13 09:13:22;;;;;;;;;2.25;2.00;;;;;14.54;46.93;98572.94;4816575;28;103036;-86
2021/10/13 09:15:51;;;;;;;;;2.00;1.75;;;;;14.53;46.45;98576.72;4828696;28;102583;-86
2021/10/13 09:18:25;;;;;;;;;1.00;1.00;;;;;14.53;47.03;98570.44;4820519;28;104097;-86
2021/10/13 09:20:53;;;;;;;;;1.00;1.00;;;;;14.52;46.67;98569.59;4821819;28;103087;-86
2021/10/13 09:23:30;;;;;;;;;1.50;1.50;;;;;14.53;46.96;98573.16;4826010;28;102132;-86
2021/10/13 09:26:05;;;;;;;;;1.00;1.00;;;;;14.53;46.85;98574.00;4821676;28;102235;-86
2021/10/13 09:28:38;;;;;;;;;2.00;2.00;;;;;14.54;46.87;98577.56;4824427;28;104175;-86
2021/10/13 09:31:20;;;;;;;;;0.50;0.50;;;;;14.54;46.62;98577.56;4829118;28;102379;-86
2021/10/13 09:34:12;;;;;;;;;1.50;1.00;;;;;14.51;46.85;98578.00;4816420;28;102259;-86
2021/10/13 09:36:45;;;;;;;;;1.50;1.50;;;;;14.54;46.36;98583.84;4817055;28;102790;-86
2021/10/13 09:39:14;;;;;;;;;2.25;1.00;;;;;14.54;46.60;98586.56;4817165;28;109598;-86
2021/10/13 09:42:07;;;;;;;;;2.00;2.00;;;;;14.55;46.59;98590.06;4821004;28;102484;-86
2021/10/13 09:44:40;;;;;;;;;1.25;1.00;;;;;14.54;46.77;98599.31;4808551;28;102746;-86
2021/10/13 09:47:11;;;;;;;;;2.00;2.00;;;;;14.55;46.31;98598.25;4819597;28;109732;-86
2021/10/13 09:49:43;;;;;;;;;1.00;1.00;;;;;14.54;46.73;98600.16;4805560;28;104036;-86
2021/10/13 09:52:14;;;;;;;;;0.50;0.50;;;;;14.53;46.58;98600.38;4834736;28;102689;-86
2021/10/13 09:54:47;;;;;;;;;0.75;0.75;;;;;14.56;46.76;98602.63;4813549;28;103751;-86
2021/10/13 09:57:18;;;;;;;;;1.00;1.00;;;;;14.55;46.62;98609.13;4817009;29;102080;-86
2021/10/13 10:00:14;;;;;;;;;1.50;1.50;;;;;14.55;46.68;98601.78;4832626;28;104346;-86
2021/10/13 10:02:57;;;;;;;;;2.00;1.25;;;;;14.55;46.77;98600.97;4810025;28;102515;-86
2021/10/13 10:05:32;;;;;;;;;1.00;1.00;;;;;14.56;46.53;98602.63;4819226;28;102776;-86
2021/10/13 10:08:08;;;;;;;;;1.50;1.50;;;;;14.56;46.64;98599.91;4822218;28;102861;-86
2021/10/13 10:10:36;;;;;;;;;2.00;2.00;;;;;14.55;46.32;98601.78;4815538;28;104410;-86
2021/10/13 10:13:11;;;;;;;;;1.50;1.00;;;;;14.56;46.40;98608.06;4800707;28;102628;-86
2021/10/13 10:15:56;;;;;;;;;2.00;1.00;;;;;14.58;46.32;98603.25;4809983;28;102606;-86
2021/10/13 10:18:26;;;;;;;;;1.00;1.00;;;;;14.56;46.66;98598.03;4825266;28;102244;-86
2021/10/13 10:20:54;;;;;;;;;1.00;1.00;;;;;14.58;46.75;98612.25;4811089;28;104057;-86
2021/10/13 10:23:28;;;;;;;;;1.00;1.00;;;;;14.57;46.99;98605.13;4808431;28;103187;-86
2021/10/13 10:25:56;;;;;;;;;2.00;1.75;;;;;14.58;46.57;98605.97;4812258;28;102743;-86
2021/10/13 10:28:50;;;;;;;;;1.75;1.75;;;;;14.57;46.29;98610.59;4817115;28;102301;-86
2021/10/13 10:31:29;;;;;;;;;2.00;2.00;;;;;14.57;46.77;98605.13;4826915;28;108651;-86
2021/10/13 10:34:03;;;;;;;;;1.00;1.00;;;;;14.58;46.32;98603.25;4825156;28;102496;-86
2021/10/13 10:36:30;;;;;;;;;2.00;2.00;;;;;14.57;46.69;98602.41;4833568;28;102446;-82
2021/10/13 10:38:57;;;;;;;;;2.00;2.00;;;;;14.57;46.41;98599.69;4833452;28;102177;-86
2021/10/13 10:41:43;;;;;;;;;2.00;2.00;;;;;14.58;46.77;98601.38;4826696;28;110227;-86
2021/10/13 10:44:32;;;;;;;;;2.00;1.75;;;;;14.58;46.92;98603.25;4835885;28;102579;-86
2021/10/13 10:47:15;;;;;;;;;1.00;1.00;;;;;14.58;46.79;98606.81;4834822;28;102177;-81
2021/10/13 10:49:55;;;;;;;;;2.00;1.00;;;;;14.59;46.49;98605.72;4831482;28;102520;-86
2021/10/13 10:52:26;;;;;;;;;1.75;1.75;;;;;14.59;46.41;98604.91;4832974;28;104222;-86
2021/10/13 10:54:58;;;;;;;;;2.00;2.00;;;;;14.61;46.55;98602.78;4821786;28;102185;-86
2021/10/13 10:57:32;;;;;;;;;1.25;1.00;;;;;14.62;46.76;98602.56;4825847;28;104101;-86
2021/10/13 11:00:00;;;;;;;;;1.00;1.00;;;;;14.63;46.94;98606.13;4827552;28;103561;-87
2021/10/13 11:02:27;;;;;;;;;2.00;2.00;;;;;14.63;46.66;98603.41;4813860;28;108961;-86
2021/10/13 11:05:02;;;;;;;;;1.00;1.00;;;;;14.63;46.70;98606.13;4819351;28;102191;-86
2021/10/13 11:07:29;;;;;;;;;2.00;2.00;;;;;14.65;46.49;98606.72;4814843;28;102421;-86
2021/10/13 11:10:12;;;;;;;;;1.00;0.25;;;;;14.64;46.41;98608.59;4820696;28;102214;-86
2021/10/13 11:12:48;;;;;;;;;0.75;0.75;;;;;14.66;46.32;98611.09;4828366;28;109137;-86
2021/10/13 11:15:17;;;;;;;;;1.00;1.00;;;;;14.65;46.60;98607.56;4821192;28;102633;-86
2021/10/13 11:17:44;;;;;;;;;1.50;1.00;;;;;14.64;46.58;98610.50;4821128;28;102092;-86
2021/10/13 11:20:13;;;;;;;;;0.25;0.25;;;;;14.67;46.88;98626.38;4807071;28;102655;-86
2021/10/13 11:22:41;;;;;;;;;1.25;1.25;;;;;14.66;46.38;98613.81;4813667;28;104174;-86
2021/10/13 11:25:15;;;;;;;;;0.50;0.50;;;;;14.67;46.75;98615.50;4806356;28;102423;-86
2021/10/13 11:27:43;;;;;;;;;1.25;1.00;;;;;14.67;46.31;98620.94;4813772;28;103686;-86
2021/10/13 11:30:19;;;;;;;;;1.00;0.75;;;;;14.67;46.42;98626.38;4814560;28;102731;-86
2021/10/13 11:32:46;;;;;;;;;2.00;1.00;;;;;14.68;46.38;98628.03;4821166;28;105726;-86
2021/10/13 11:35:13;;;;;;;;;0.75;0.50;;;;;14.67;46.29;98627.22;4820848;28;102510;-86
2021/10/13 11:37:40;;;;;;;;;1.00;1.00;;;;;14.67;46.41;98616.34;4814872;28;102569;-86